Terminal Aerodrome Forecast
Issued by NWS

Home | Current Version | Previous Version | Graphics & Text | Print | Product List | Glossary On
Versions: 1 2 3 4 5 6 7 8 9 10 11 12 13 14 15 16
840
FTUS41 KCLE 231120
TAFFDY
TAF
KFDY 231120Z 2312/2412 29004KT P6SM SCT045
     FM232100 16003KT P6SM SKC=

USA.gov is the U.S. government's official web portal to all federal, state and local government web resources and services.